Time;durP1;ratioP1;P1;durP2;ratioP2;P2;SDS_P1;SDS_P2;PMS_P1;PMS_P2;Temp;Humidity;BMP_temperature;BMP_pressure;BME280_temperature;BME280_humidity;BME280_pressure;Samples;Min_cycle;Max_cycle;Signal;HPM_P1;HPM_P2
2023/08/05 00:01:39;;;;;;;3.93;1.67;;;;;;;16.23;88.22;100798.22;5097561;28;20546;-81
2023/08/05 00:04:06;;;;;;;2.47;1.50;;;;;;;16.21;88.50;100797.50;5087538;28;20213;-79
2023/08/05 00:06:32;;;;;;;2.07;1.60;;;;;;;16.19;88.34;100794.06;5084110;28;20200;-80
2023/08/05 00:09:00;;;;;;;1.70;1.60;;;;;;;16.16;88.29;100802.41;5083630;28;20224;-81
2023/08/05 00:11:26;;;;;;;3.30;1.90;;;;;;;16.13;88.53;100802.66;5088720;28;20218;-82
2023/08/05 00:13:53;;;;;;;2.83;1.90;;;;;;;16.10;88.73;100802.94;5088345;28;20278;-80
2023/08/05 00:16:19;;;;;;;2.10;1.70;;;;;;;16.06;88.27;100799.66;5090354;28;20211;-79
2023/08/05 00:18:46;;;;;;;2.07;1.70;;;;;;;16.00;88.75;100794.78;5084115;28;20235;-81
2023/08/05 00:21:12;;;;;;;3.07;1.50;;;;;;;15.97;89.14;100806.63;5084647;28;20206;-80
2023/08/05 00:23:39;;;;;;;4.10;1.87;;;;;;;15.94;89.12;100804.19;5089397;28;20207;-80
2023/08/05 00:26:07;;;;;;;2.17;1.97;;;;;;;15.91;89.20;100809.84;5087778;28;20205;-80
2023/08/05 00:28:33;;;;;;;2.10;1.90;;;;;;;15.87;89.48;100816.44;5084826;28;20610;-81
2023/08/05 00:30:59;;;;;;;2.30;1.90;;;;;;;15.84;89.49;100814.00;5092291;28;20208;-80
2023/08/05 00:33:26;;;;;;;2.93;2.30;;;;;;;15.83;90.13;100809.59;5082930;28;20203;-81
2023/08/05 00:35:52;;;;;;;2.80;2.10;;;;;;;15.82;90.43;100810.59;5088678;28;20663;-81
2023/08/05 00:38:20;;;;;;;2.50;2.30;;;;;;;15.82;91.07;100812.41;5085368;28;20710;-81
2023/08/05 00:40:46;;;;;;;2.50;2.30;;;;;;;15.80;91.52;100807.16;5089940;28;20606;-81
2023/08/05 00:43:14;;;;;;;3.13;1.80;;;;;;;15.79;91.67;100804.59;5091529;28;20233;-79
2023/08/05 00:45:40;;;;;;;4.60;2.07;;;;;;;15.78;91.64;100810.97;5083261;28;20218;-80
2023/08/05 00:48:07;;;;;;;3.83;2.07;;;;;;;15.76;91.86;100816.47;5090664;28;20230;-81
2023/08/05 00:50:35;;;;;;;3.53;2.10;;;;;;;15.75;91.80;100813.91;5089271;28;20722;-80
2023/08/05 00:53:02;;;;;;;5.13;2.57;;;;;;;15.74;92.25;100804.16;5084639;28;20211;-82
2023/08/05 00:55:28;;;;;;;3.13;2.13;;;;;;;15.72;92.60;100817.72;5090554;28;20240;-80
2023/08/05 00:57:55;;;;;;;3.47;2.30;;;;;;;15.73;92.97;100814.03;5092514;28;20654;-79
2023/08/05 01:00:22;;;;;;;5.13;2.40;;;;;;;15.71;93.23;100804.41;5088614;28;20702;-80
2023/08/05 01:02:49;;;;;;;5.13;2.23;;;;;;;15.70;93.27;100811.59;5089666;28;20210;-80
2023/08/05 01:05:15;;;;;;;5.37;2.57;;;;;;;15.69;93.33;100812.59;5090439;28;20229;-80
2023/08/05 01:07:43;;;;;;;3.93;2.23;;;;;;;15.67;93.14;100806.47;5091956;28;20234;-80
2023/08/05 01:10:10;;;;;;;7.60;2.60;;;;;;;15.66;93.54;100810.16;5092674;28;20203;-81
2023/08/05 01:12:37;;;;;;;4.80;2.90;;;;;;;15.65;93.54;100807.59;5086384;28;20221;-80
2023/08/05 01:15:03;;;;;;;3.77;2.20;;;;;;;15.62;92.87;100811.38;5084550;28;20475;-82
2023/08/05 01:17:31;;;;;;;3.07;2.70;;;;;;;15.58;92.99;100812.63;5086920;28;20584;-80
2023/08/05 01:19:58;;;;;;;3.87;2.40;;;;;;;15.55;93.08;100813.72;5088577;28;20238;-82
2023/08/05 01:22:34;;;;;;;3.37;2.63;;;;;;;15.54;93.63;100808.44;5085708;28;20207;-83
2023/08/05 01:25:05;;;;;;;3.13;2.00;;;;;;;15.50;93.76;100793.56;5086857;28;20295;-80
2023/08/05 01:27:34;;;;;;;4.90;2.30;;;;;;;15.43;91.34;100798.56;5084342;28;20658;-81
2023/08/05 01:30:01;;;;;;;2.93;2.00;;;;;;;15.29;89.91;100793.47;5084735;28;20216;-81
2023/08/05 01:32:28;;;;;;;2.73;1.60;;;;;;;15.13;89.72;100804.56;5085236;28;20208;-82
2023/08/05 01:34:55;;;;;;;3.37;2.00;;;;;;;15.03;89.13;100808.97;5088265;28;20681;-82
2023/08/05 01:37:22;;;;;;;2.63;1.73;;;;;;;14.93;89.65;100797.25;5088526;28;20578;-82
2023/08/05 01:39:48;;;;;;;2.87;1.77;;;;;;;14.87;90.70;100800.41;5086881;28;20221;-82
2023/08/05 01:42:15;;;;;;;3.83;2.40;;;;;;;14.81;91.35;100798.22;5088718;28;20581;-82
2023/08/05 01:44:42;;;;;;;2.87;2.13;;;;;;;14.80;91.93;100799.19;5086546;28;20216;-81
2023/08/05 01:47:09;;;;;;;2.57;2.20;;;;;;;14.77;92.15;100800.28;5089661;28;20198;-82
2023/08/05 01:49:35;;;;;;;2.27;1.77;;;;;;;14.75;92.98;100804.91;5087067;28;20220;-82
2023/08/05 01:52:02;;;;;;;2.30;1.70;;;;;;;14.73;92.62;100809.53;5091300;28;20292;-82
2023/08/05 01:54:28;;;;;;;1.80;1.60;;;;;;;14.68;92.31;100814.44;5086863;28;20206;-82
2023/08/05 01:56:55;;;;;;;2.40;1.50;;;;;;;14.59;92.90;100807.94;5084411;28;20203;-82
2023/08/05 01:59:21;;;;;;;2.90;1.70;;;;;;;14.54;93.11;100812.78;5087892;28;20228;-80
2023/08/05 02:01:49;;;;;;;2.83;2.23;;;;;;;14.49;93.21;100817.69;5086934;28;20208;-81
2023/08/05 02:04:16;;;;;;;5.33;2.53;;;;;;;14.43;94.11;100817.28;5088728;28;20678;-80
2023/08/05 02:06:42;;;;;;;2.40;2.20;;;;;;;14.40;94.59;100813.00;5082592;28;20205;-80
2023/08/05 02:09:09;;;;;;;2.37;2.17;;;;;;;14.38;94.81;100808.72;5075514;28;20229;-80
2023/08/05 02:11:35;;;;;;;2.00;1.80;;;;;;;14.36;95.22;100816.00;5085669;28;20208;-80
2023/08/05 02:14:02;;;;;;;2.47;1.90;;;;;;;14.31;95.07;100812.84;5085012;28;20670;-80
2023/08/05 02:16:29;;;;;;;3.00;1.60;;;;;;;14.23;94.85;100819.63;5081278;28;20244;-80
2023/08/05 02:18:56;;;;;;;3.40;2.33;;;;;;;14.17;94.84;100819.22;5080546;28;20333;-80
2023/08/05 02:21:24;;;;;;;3.30;2.27;;;;;;;14.14;95.68;100814.97;5089052;28;20228;-80
2023/08/05 02:23:51;;;;;;;3.23;2.00;;;;;;;14.13;95.95;100809.75;5087158;28;20205;-80
2023/08/05 02:26:17;;;;;;;2.37;1.87;;;;;;;14.12;96.37;100798.16;5084045;28;20200;-80
2023/08/05 02:28:45;;;;;;;3.80;2.60;;;;;;;14.14;96.47;100795.38;5089009;28;20232;-81
2023/08/05 02:31:12;;;;;;;5.13;3.30;;;;;;;14.17;97.61;100804.00;5087882;28;20201;-81
2023/08/05 02:33:38;;;;;;;4.40;3.43;;;;;;;14.18;97.99;100795.00;5087414;28;20205;-80
2023/08/05 02:36:07;;;;;;;4.23;3.10;;;;;;;14.21;98.96;100785.88;5084439;28;20212;-80
2023/08/05 02:38:33;;;;;;;5.77;4.10;;;;;;;14.22;99.20;100788.44;5085901;28;20229;-81
2023/08/05 02:41:00;;;;;;;5.73;3.90;;;;;;;14.24;100.00;100799.06;5091309;28;20228;-80
2023/08/05 02:43:26;;;;;;;4.27;3.30;;;;;;;14.26;100.00;100791.75;5080881;28;20245;-80
2023/08/05 02:45:54;;;;;;;3.03;2.60;;;;;;;14.24;99.82;100791.00;5085685;28;20212;-80
2023/08/05 02:48:21;;;;;;;3.70;2.73;;;;;;;14.18;98.53;100795.00;5082294;28;20231;-80
2023/08/05 02:50:47;;;;;;;5.20;3.00;;;;;;;14.11;98.08;100795.59;5088696;28;20233;-81
2023/08/05 02:53:15;;;;;;;3.70;2.93;;;;;;;14.04;98.19;100789.00;5085621;28;20212;-80
2023/08/05 02:55:42;;;;;;;6.07;3.47;;;;;;;14.00;98.57;100784.81;5080858;28;20204;-80
2023/08/05 02:58:08;;;;;;;8.17;3.73;;;;;;;13.98;99.83;100782.25;5092522;28;20231;-81
2023/08/05 03:00:35;;;;;;;7.03;3.50;;;;;;;14.01;100.00;100775.81;5088215;28;20220;-80
2023/08/05 03:03:02;;;;;;;5.90;3.53;;;;;;;14.02;100.00;100780.22;5089499;28;20684;-80
2023/08/05 03:05:29;;;;;;;5.10;2.97;;;;;;;13.99;99.90;100788.47;5089703;28;20204;-80
2023/08/05 03:07:56;;;;;;;4.83;3.10;;;;;;;13.89;98.86;100788.31;5086060;28;20590;-80
2023/08/05 03:10:23;;;;;;;3.87;2.97;;;;;;;13.80;97.17;100799.69;5082352;28;20200;-80
2023/08/05 03:12:50;;;;;;;3.37;2.93;;;;;;;13.68;96.61;100788.09;5084199;28;20208;-80
2023/08/05 03:15:16;;;;;;;6.23;3.23;;;;;;;13.57;96.52;100790.72;5085429;28;20209;-80
2023/08/05 03:17:43;;;;;;;4.87;2.77;;;;;;;13.49;96.29;100787.75;5083415;28;20224;-81
2023/08/05 03:20:24;;;;;;;3.20;2.63;;;;;;;13.44;96.86;100795.25;5088316;28;20232;-80
2023/08/05 03:22:51;;;;;;;7.07;2.97;;;;;;;13.42;97.31;100805.22;5086194;28;20201;-80
2023/08/05 03:25:18;;;;;;;3.90;2.87;;;;;;;13.40;97.83;100804.47;5083932;28;20204;-79
2023/08/05 03:27:46;;;;;;;3.73;3.03;;;;;;;13.41;98.32;100800.84;5083123;28;20227;-80
2023/08/05 03:30:12;;;;;;;3.30;2.70;;;;;;;13.41;98.61;100803.50;5086723;28;20205;-81
2023/08/05 03:32:39;;;;;;;3.37;2.50;;;;;;;13.42;98.44;100803.41;5088807;28;20227;-81
2023/08/05 03:35:06;;;;;;;5.67;2.93;;;;;;;13.43;98.38;100799.75;5084044;28;20204;-81
2023/08/05 03:37:32;;;;;;;6.10;3.40;;;;;;;13.45;98.30;100796.94;5077997;28;20217;-80
2023/08/05 03:39:59;;;;;;;6.43;3.53;;;;;;;13.45;98.84;100794.28;5086162;28;20224;-81
2023/08/05 03:42:25;;;;;;;5.60;3.37;;;;;;;13.46;98.95;100798.66;5089780;28;20204;-81
2023/08/05 03:44:53;;;;;;;4.50;3.00;;;;;;;13.47;99.56;100811.06;5092899;28;20201;-80
2023/08/05 03:47:20;;;;;;;3.83;3.03;;;;;;;13.48;100.00;100804.75;5096226;28;20200;-80
2023/08/05 03:49:47;;;;;;;4.13;3.23;;;;;;;13.48;100.00;100800.25;5089695;28;20235;-80
2023/08/05 03:52:14;;;;;;;3.50;3.20;;;;;;;13.50;100.00;100800.16;5083929;28;20356;-80
2023/08/05 03:54:40;;;;;;;7.33;4.33;;;;;;;13.47;99.62;100787.84;5086904;28;20230;-81
2023/08/05 03:57:08;;;;;;;8.77;3.90;;;;;;;13.43;100.00;100781.03;5093412;28;20204;-80
2023/08/05 03:59:35;;;;;;;6.70;3.30;;;;;;;13.43;100.00;100791.75;5085083;28;20638;-80
2023/08/05 04:02:03;;;;;;;3.73;3.37;;;;;;;13.44;100.00;100790.75;5087342;28;20323;-80
2023/08/05 04:04:29;;;;;;;5.20;3.10;;;;;;;13.47;100.00;100785.19;5091592;28;20216;-80
2023/08/05 04:06:56;;;;;;;7.03;3.53;;;;;;;13.51;100.00;100792.00;5087399;28;20207;-79
2023/08/05 04:09:24;;;;;;;5.90;4.10;;;;;;;13.55;100.00;100798.00;5083523;28;20224;-80
2023/08/05 04:11:51;;;;;;;9.27;4.20;;;;;;;13.59;100.00;100788.78;5089287;28;21622;-80
2023/08/05 04:14:20;;;;;;;4.97;4.23;;;;;;;13.63;100.00;100782.22;5093606;28;20211;-80
2023/08/05 04:16:47;;;;;;;5.83;4.23;;;;;;;13.66;100.00;100784.69;5090650;28;20228;-80
2023/08/05 04:19:15;;;;;;;5.23;3.80;;;;;;;13.71;100.00;100792.38;5092519;28;20229;-81
2023/08/05 04:21:46;;;;;;;7.80;4.47;;;;;;;13.74;100.00;100795.69;5091187;28;20229;-81
2023/08/05 04:24:13;;;;;;;4.43;3.90;;;;;;;13.78;100.00;100796.31;5089069;28;20197;-80
2023/08/05 04:26:40;;;;;;;4.87;4.07;;;;;;;13.81;100.00;100793.38;5092210;28;20652;-81
2023/08/05 04:29:08;;;;;;;4.30;3.83;;;;;;;13.85;100.00;100784.16;5086478;28;20224;-80
2023/08/05 04:31:34;;;;;;;5.33;4.00;;;;;;;13.90;100.00;100779.31;5082944;28;20209;-80
2023/08/05 04:34:01;;;;;;;5.10;3.83;;;;;;;13.94;100.00;100777.28;5087778;28;20201;-80
2023/08/05 04:36:28;;;;;;;5.97;3.50;;;;;;;13.97;100.00;100785.94;5091358;28;20212;-80
2023/08/05 04:38:56;;;;;;;3.77;3.37;;;;;;;14.00;100.00;100782.16;5092525;28;20220;-81
2023/08/05 04:41:23;;;;;;;5.37;3.50;;;;;;;14.03;100.00;100787.28;5090706;28;20318;-81
2023/08/05 04:43:49;;;;;;;5.53;3.30;;;;;;;14.03;100.00;100785.47;5091451;28;20208;-80
2023/08/05 04:46:15;;;;;;;4.87;3.37;;;;;;;14.06;100.00;100789.72;5091911;28;20204;-80
2023/08/05 04:48:42;;;;;;;10.03;3.40;;;;;;;14.08;100.00;100785.13;5086239;28;20228;-80
2023/08/05 04:51:08;;;;;;;4.13;3.50;;;;;;;14.10;100.00;100784.03;5084035;28;20200;-80
2023/08/05 04:53:36;;;;;;;4.27;3.13;;;;;;;14.11;100.00;100792.94;5093422;28;20268;-81
2023/08/05 04:56:03;;;;;;;3.97;3.10;;;;;;;14.12;100.00;100781.25;5089680;28;20227;-80
2023/08/05 04:58:29;;;;;;;4.07;3.30;;;;;;;14.14;100.00;100785.50;5085584;28;20402;-80
2023/08/05 05:00:56;;;;;;;4.63;2.80;;;;;;;14.17;100.00;100793.28;5083502;28;20233;-81
2023/08/05 05:03:23;;;;;;;4.97;3.20;;;;;;;14.20;100.00;100781.50;5092733;28;20204;-81
2023/08/05 05:05:50;;;;;;;4.63;3.30;;;;;;;14.23;100.00;100789.31;5091250;28;20201;-80
2023/08/05 05:08:16;;;;;;;6.47;3.47;;;;;;;14.26;100.00;100781.03;5079991;28;20704;-80
2023/08/05 05:10:46;;;;;;;4.77;3.67;;;;;;;14.31;100.00;100786.91;5092101;28;20197;-80
2023/08/05 05:13:13;;;;;;;5.97;3.90;;;;;;;14.38;100.00;100787.28;5090585;28;20204;-80
2023/08/05 05:15:39;;;;;;;4.43;3.60;;;;;;;14.40;100.00;100785.31;5091161;28;20201;-80
2023/08/05 05:18:06;;;;;;;4.00;3.37;;;;;;;14.42;100.00;100795.00;5087395;28;20232;-80
2023/08/05 05:20:32;;;;;;;3.80;3.33;;;;;;;14.43;100.00;100794.03;5085795;28;20224;-80
2023/08/05 05:22:59;;;;;;;4.33;3.57;;;;;;;14.47;100.00;100808.03;5086298;28;20197;-81
2023/08/05 05:25:25;;;;;;;4.73;3.83;;;;;;;14.48;100.00;100810.63;5090733;28;20212;-80
2023/08/05 05:27:53;;;;;;;4.70;3.40;;;;;;;14.51;100.00;100813.03;5094270;28;20696;-80
2023/08/05 05:30:19;;;;;;;7.27;3.77;;;;;;;14.54;100.00;100810.13;5091618;28;20204;-80
2023/08/05 05:32:46;;;;;;;6.77;3.73;;;;;;;14.60;100.00;100814.16;5091740;28;20211;-80
2023/08/05 05:35:12;;;;;;;4.97;3.50;;;;;;;14.64;100.00;100812.09;5090552;28;20210;-80
2023/08/05 05:37:39;;;;;;;5.67;3.67;;;;;;;14.68;100.00;100813.56;5092246;28;20235;-80
2023/08/05 05:40:06;;;;;;;4.37;3.50;;;;;;;14.71;100.00;100824.88;5093383;28;20211;-81
2023/08/05 05:42:33;;;;;;;4.40;3.60;;;;;;;14.73;100.00;100819.41;5086007;28;20201;-81
2023/08/05 05:45:01;;;;;;;5.37;3.60;;;;;;;14.77;100.00;100826.25;5081645;28;20288;-80
2023/08/05 05:47:28;;;;;;;5.00;3.27;;;;;;;14.79;100.00;100822.47;5088412;28;20236;-79
2023/08/05 05:49:54;;;;;;;4.87;3.90;;;;;;;14.81;100.00;100823.22;5078601;28;20216;-80
2023/08/05 05:52:21;;;;;;;5.60;3.23;;;;;;;14.85;100.00;100827.38;5091925;28;20205;-80
2023/08/05 05:54:47;;;;;;;3.97;3.27;;;;;;;14.87;100.00;100825.41;5082344;28;20206;-80
2023/08/05 05:57:14;;;;;;;5.67;3.63;;;;;;;14.89;100.00;100836.88;5090009;28;20688;-80
2023/08/05 05:59:40;;;;;;;6.10;3.73;;;;;;;14.91;100.00;100829.56;5084483;28;20278;-80
2023/08/05 06:02:08;;;;;;;5.03;3.13;;;;;;;14.92;100.00;100827.72;5089578;28;20243;-81
2023/08/05 06:04:35;;;;;;;6.20;3.30;;;;;;;14.94;100.00;100829.31;5083260;28;20643;-81
2023/08/05 06:07:02;;;;;;;6.00;3.50;;;;;;;14.96;100.00;100826.53;5089071;28;20208;-80
2023/08/05 06:09:31;;;;;;;3.87;3.20;;;;;;;14.97;100.00;100825.53;5084651;28;20707;-81
2023/08/05 06:11:57;;;;;;;3.80;3.37;;;;;;;15.00;100.00;100827.13;5088554;28;20291;-80
2023/08/05 06:14:24;;;;;;;5.37;3.57;;;;;;;15.01;100.00;100823.47;5084845;28;20212;-80
2023/08/05 06:16:50;;;;;;;5.10;3.57;;;;;;;15.05;100.00;100825.78;5084054;28;20209;-80
2023/08/05 06:19:18;;;;;;;3.83;3.20;;;;;;;15.08;100.00;100825.53;5079810;28;20935;-81
2023/08/05 06:21:44;;;;;;;5.57;3.67;;;;;;;15.12;100.00;100821.66;5087136;28;20231;-81
2023/08/05 06:24:11;;;;;;;4.93;3.47;;;;;;;15.15;100.00;100820.56;5089666;28;20206;-82
2023/08/05 06:26:38;;;;;;;5.67;3.33;;;;;;;15.19;100.00;100824.69;5080713;28;20661;-81
2023/08/05 06:29:05;;;;;;;4.47;3.80;;;;;;;15.21;100.00;100815.56;5078767;28;20234;-82
2023/08/05 06:31:31;;;;;;;4.57;3.37;;;;;;;15.24;100.00;100819.81;5079941;28;20205;-81
2023/08/05 06:33:58;;;;;;;5.80;3.53;;;;;;;15.28;100.00;100822.13;5085469;28;20213;-81
2023/08/05 06:36:26;;;;;;;4.73;3.30;;;;;;;15.32;100.00;100819.19;5085787;28;20200;-81
2023/08/05 06:38:52;;;;;;;3.93;3.00;;;;;;;15.35;100.00;100810.91;5087126;28;20222;-81
2023/08/05 06:41:19;;;;;;;6.20;3.10;;;;;;;15.38;100.00;100811.53;5089315;28;20212;-80
2023/08/05 06:43:46;;;;;;;6.83;3.40;;;;;;;15.43;100.00;100801.25;5083807;28;20702;-81
2023/08/05 06:46:12;;;;;;;8.63;4.00;;;;;;;15.49;100.00;100795.38;5079919;28;20301;-81
2023/08/05 06:48:39;;;;;;;8.27;3.47;;;;;;;15.54;100.00;100798.56;5085560;28;20222;-81
2023/08/05 06:51:05;;;;;;;3.60;2.90;;;;;;;15.58;100.00;100786.63;5080110;28;20210;-81
2023/08/05 06:53:34;;;;;;;5.00;4.03;;;;;;;15.63;100.00;100779.03;5078221;28;20212;-81
2023/08/05 06:56:01;;;;;;;6.87;3.90;;;;;;;15.65;100.00;100776.22;5084076;28;20661;-81
2023/08/05 06:58:28;;;;;;;10.63;4.93;;;;;;;15.73;100.00;100767.53;5074498;28;20225;-81
2023/08/05 07:00:54;;;;;;;13.03;4.87;;;;;;;15.78;100.00;100760.78;5086669;28;20233;-81
2023/08/05 07:03:22;;;;;;;8.33;4.63;;;;;;;15.84;100.00;100756.75;5093353;28;20208;-82
2023/08/05 07:05:49;;;;;;;16.53;5.20;;;;;;;15.92;100.00;100751.59;5085024;28;20207;-81
2023/08/05 07:08:15;;;;;;;6.60;3.97;;;;;;;15.98;100.00;100751.91;5088422;28;20224;-82
2023/08/05 07:10:43;;;;;;;6.00;3.60;;;;;;;16.05;100.00;100751.41;5083507;28;20211;-82
2023/08/05 07:13:10;;;;;;;8.43;4.43;;;;;;;16.12;100.00;100752.59;5082212;28;20206;-80
2023/08/05 07:15:37;;;;;;;7.87;4.63;;;;;;;16.18;100.00;100746.69;5094142;28;20207;-82
2023/08/05 07:18:04;;;;;;;4.87;3.70;;;;;;;16.25;100.00;100747.88;5097822;28;20847;-80
2023/08/05 07:20:31;;;;;;;8.00;3.70;;;;;;;16.33;100.00;100748.91;5083062;28;20229;-81
2023/08/05 07:22:57;;;;;;;6.67;4.20;;;;;;;16.44;100.00;100753.38;5094503;28;20639;-81
2023/08/05 07:25:24;;;;;;;7.07;3.50;;;;;;;16.50;99.38;100752.84;5097092;28;20200;-81
2023/08/05 07:27:51;;;;;;;6.33;3.10;;;;;;;16.63;98.26;100756.22;5085884;28;20236;-81
2023/08/05 07:30:18;;;;;;;5.37;3.50;;;;;;;16.73;95.99;100741.97;5085510;28;20208;-81
2023/08/05 07:32:44;;;;;;;6.47;3.33;;;;;;;16.83;94.79;100741.03;5083188;28;20197;-81
2023/08/05 07:35:13;;;;;;;5.60;3.77;;;;;;;16.94;93.32;100743.63;5088209;28;20207;-81
2023/08/05 07:37:41;;;;;;;7.07;2.80;;;;;;;17.10;92.20;100739.56;5096006;28;20374;-81
2023/08/05 07:40:12;;;;;;;5.60;3.00;;;;;;;17.26;91.20;100740.75;5091387;28;20206;-82
2023/08/05 07:42:39;;;;;;;6.27;2.43;;;;;;;17.41;88.66;100730.44;5087324;28;20305;-81
2023/08/05 07:45:11;;;;;;;4.70;2.63;;;;;;;17.57;86.98;100730.72;5089496;28;20214;-81
2023/08/05 07:47:40;;;;;;;3.77;2.23;;;;;;;17.76;86.04;100726.38;5088981;28;20209;-81
2023/08/05 07:50:10;;;;;;;4.97;2.30;;;;;;;17.93;83.42;100718.44;5083909;28;20199;-81
2023/08/05 07:52:36;;;;;;;4.23;2.30;;;;;;;18.08;83.06;100720.72;5081132;28;20221;-81
2023/08/05 07:55:03;;;;;;;5.33;2.67;;;;;;;18.23;82.38;100716.59;5084213;28;20210;-82
2023/08/05 07:57:30;;;;;;;3.90;2.20;;;;;;;18.34;80.13;100719.94;5087291;28;20198;-82
2023/08/05 07:59:57;;;;;;;3.87;2.30;;;;;;;18.44;79.49;100722.63;5089835;28;20548;-82
2023/08/05 08:02:25;;;;;;;4.50;2.47;;;;;;;18.58;79.37;100719.47;5087738;28;20245;-82
2023/08/05 08:04:54;;;;;;;4.67;2.60;;;;;;;18.69;78.48;100716.63;5092111;28;20568;-81
2023/08/05 08:07:20;;;;;;;4.70;1.90;;;;;;;18.82;77.38;100718.97;5089416;28;20207;-81
2023/08/05 08:09:47;;;;;;;3.53;2.60;;;;;;;18.91;76.54;100719.94;5090167;28;20206;-81
2023/08/05 08:12:13;;;;;;;7.43;2.93;;;;;;;19.01;75.44;100715.34;5086164;28;20210;-81
2023/08/05 08:14:40;;;;;;;3.30;2.27;;;;;;;19.15;76.02;100722.09;5091372;28;20208;-81
2023/08/05 08:17:06;;;;;;;8.87;2.63;;;;;;;19.33;75.84;100717.59;5091956;28;20206;-82
2023/08/05 08:19:34;;;;;;;5.23;2.63;;;;;;;19.50;74.77;100714.09;5089540;28;20261;-81
2023/08/05 08:22:01;;;;;;;5.10;3.00;;;;;;;19.69;72.88;100710.41;5085637;28;20224;-82
2023/08/05 08:24:27;;;;;;;4.77;2.40;;;;;;;19.82;71.85;100705.44;5094195;28;20261;-82
2023/08/05 08:26:54;;;;;;;5.13;3.03;;;;;;;19.99;71.05;100704.59;5083007;28;20204;-80
2023/08/05 08:29:20;;;;;;;3.53;2.30;;;;;;;20.14;70.50;100698.59;5085480;28;20224;-80
2023/08/05 08:31:47;;;;;;;5.47;2.25;;;;;;;20.32;70.13;100699.41;5082682;28;20212;-80
2023/08/05 08:34:13;;;;;;;7.45;2.35;;;;;;;20.50;69.03;100694.81;5093619;28;20572;-81
2023/08/05 08:36:41;;;;;;;2.85;2.13;;;;;;;20.65;67.51;100695.94;5093304;28;20210;-81
2023/08/05 08:39:07;;;;;;;5.00;2.20;;;;;;;20.78;66.65;100695.50;5087374;28;20231;-82
2023/08/05 08:41:40;;;;;;;5.93;2.53;;;;;;;20.92;66.26;100675.94;5080902;28;20243;-82
2023/08/05 08:44:08;;;;;;;5.03;2.15;;;;;;;21.09;64.49;100680.41;5086311;28;20199;-82
2023/08/05 08:46:35;;;;;;;3.83;2.20;;;;;;;21.14;61.87;100669.03;5088547;28;20762;-82
2023/08/05 08:49:02;;;;;;;3.00;1.50;;;;;;;21.06;59.19;100669.88;5087415;28;20231;-82
2023/08/05 08:51:29;;;;;;;2.53;1.88;;;;;;;20.98;58.74;100666.28;5084322;28;20204;-82
2023/08/05 08:53:57;;;;;;;3.22;1.63;;;;;;;20.88;57.45;100660.16;5085376;28;20200;-81
2023/08/05 08:56:24;;;;;;;1.98;1.25;;;;;;;20.79;56.63;100668.25;5079306;28;20201;-82
2023/08/05 08:58:51;;;;;;;3.72;1.73;;;;;;;20.88;57.88;100652.91;5086199;28;20220;-82
2023/08/05 09:01:21;;;;;;;3.10;1.50;;;;;;;21.13;57.59;100651.97;5088582;28;20207;-82
2023/08/05 09:03:52;;;;;;;3.78;1.95;;;;;;;21.20;55.64;100654.88;5083896;28;20200;-82
2023/08/05 09:06:22;;;;;;;2.97;1.70;;;;;;;21.33;56.52;100638.16;5086695;28;20290;-82
2023/08/05 09:08:50;;;;;;;3.47;1.95;;;;;;;21.53;56.64;100638.69;5083433;28;20223;-82
2023/08/05 09:11:18;;;;;;;4.90;1.70;;;;;;;21.75;57.04;100644.28;5090053;28;20223;-83
2023/08/05 09:13:44;;;;;;;2.58;1.33;;;;;;;21.96;55.90;100641.06;5086695;28;20207;-82
2023/08/05 09:16:13;;;;;;;5.00;1.77;;;;;;;21.99;54.24;100648.88;5087391;28;20205;-82
2023/08/05 09:18:44;;;;;;;2.28;1.48;;;;;;;22.00;54.98;100650.59;5085180;28;20220;-82
2023/08/05 09:21:10;;;;;;;2.22;1.73;;;;;;;22.14;56.02;100647.19;5081024;28;20200;-82
2023/08/05 09:23:45;;;;;;;6.15;1.65;;;;;;;22.36;54.69;100636.63;5082555;28;20221;-82
2023/08/05 09:26:12;;;;;;;3.25;1.40;;;;;;;22.52;53.88;100634.72;5083916;28;20204;-82
2023/08/05 09:28:40;;;;;;;4.43;1.38;;;;;;;22.59;53.10;100623.13;5086805;28;20598;-83
2023/08/05 09:31:13;;;;;;;2.92;1.30;;;;;;;22.69;53.54;100618.34;5085239;28;20228;-82
2023/08/05 09:33:41;;;;;;;1.63;1.40;;;;;;;22.75;51.77;100615.75;5083809;28;20209;-82
2023/08/05 09:36:12;;;;;;;2.42;1.20;;;;;;;22.77;50.83;100618.34;5085243;28;20649;-82
2023/08/05 09:38:39;;;;;;;2.88;1.38;;;;;;;22.82;52.43;100610.50;5087848;28;20224;-81
2023/08/05 09:41:07;;;;;;;1.92;1.30;;;;;;;22.91;51.97;100614.06;5085877;28;20211;-82
2023/08/05 09:43:35;;;;;;;3.05;1.60;;;;;;;22.88;51.39;100607.09;5088075;28;20224;-82
2023/08/05 09:46:05;;;;;;;2.50;1.25;;;;;;;22.80;50.15;100602.53;5089072;28;20246;-82
2023/08/05 09:48:39;;;;;;;1.48;1.17;;;;;;;22.75;50.14;100596.75;5086782;28;20725;-83
2023/08/05 09:51:07;;;;;;;1.85;1.13;;;;;;;22.81;50.22;100596.09;5092441;28;20234;-82
2023/08/05 09:53:36;;;;;;;3.70;1.30;;;;;;;22.92;50.40;100594.88;5087524;28;20222;-82
2023/08/05 09:56:06;;;;;;;1.65;1.25;;;;;;;22.94;49.88;100598.22;5081518;28;20208;-82
2023/08/05 09:58:35;;;;;;;2.70;1.20;;;;;;;22.95;49.66;100594.47;5085373;28;20224;-82
2023/08/05 10:01:07;;;;;;;1.88;1.00;;;;;;;23.01;49.76;100595.66;5091116;28;20216;-82
2023/08/05 10:03:36;;;;;;;1.15;0.93;;;;;;;23.05;48.56;100589.69;5090778;28;20547;-82
2023/08/05 10:06:03;;;;;;;1.70;1.08;;;;;;;23.09;48.07;100591.03;5089887;28;20215;-82
2023/08/05 10:08:32;;;;;;;1.08;0.98;;;;;;;23.14;48.24;100590.47;5078348;28;20231;-80
2023/08/05 10:11:00;;;;;;;1.02;0.95;;;;;;;23.18;46.31;100595.38;5084185;28;20265;-82
2023/08/05 10:13:27;;;;;;;1.65;1.00;;;;;;;23.14;45.35;100585.88;5081396;28;20208;-81
2023/08/05 10:15:55;;;;;;;1.73;0.93;;;;;;;23.12;45.91;100585.22;5081055;28;20205;-82
2023/08/05 10:18:26;;;;;;;1.85;1.10;;;;;;;23.10;46.87;100581.00;5084557;28;20212;-82
2023/08/05 10:20:53;;;;;;;1.75;1.20;;;;;;;23.12;45.97;100574.34;5087922;28;20215;-82
2023/08/05 10:23:24;;;;;;;1.65;1.02;;;;;;;23.18;46.20;100570.91;5089769;28;20276;-82
2023/08/05 10:25:52;;;;;;;4.13;1.83;;;;;;;23.26;45.64;100571.91;5085214;28;20216;-82
2023/08/05 10:28:42;;;;;;;2.50;1.30;;;;;;;23.34;45.73;100564.50;5086282;28;20292;-82
2023/08/05 10:31:24;;;;;;;3.80;1.60;;;;;;;23.46;47.38;100573.94;5076944;28;20207;-81
2023/08/05 10:34:12;;;;;;;1.73;1.02;;;;;;;23.53;46.95;100566.75;5085246;28;20239;-82
2023/08/05 10:36:43;;;;;;;2.05;1.48;;;;;;;23.56;46.55;100559.28;5078120;28;20199;-82
2023/08/05 10:39:43;;;;;;;2.45;1.05;;;;;;;23.64;47.21;100549.19;5085147;28;20224;-81
2023/08/05 10:42:34;;;;;;;1.60;1.15;;;;;;;23.78;47.17;100553.81;5091355;28;20223;-80
2023/08/05 10:45:01;;;;;;;2.45;1.08;;;;;;;23.89;46.83;100544.34;5089002;28;20695;-81
2023/08/05 10:47:28;;;;;;;2.45;1.25;;;;;;;23.96;46.20;100539.84;5089499;28;20211;-81
2023/08/05 10:49:59;;;;;;;2.83;1.30;;;;;;;23.98;45.97;100547.81;5090756;28;20215;-80
2023/08/05 10:52:26;;;;;;;1.20;0.98;;;;;;;23.95;44.38;100537.31;5094756;28;20211;-82
2023/08/05 10:54:53;;;;;;;1.58;1.20;;;;;;;23.86;44.47;100537.38;5090991;28;20211;-80
2023/08/05 10:57:47;;;;;;;2.15;1.17;;;;;;;23.84;44.91;100536.72;5096871;28;20265;-82
2023/08/05 11:00:24;;;;;;;3.05;1.40;;;;;;;23.77;44.51;100529.50;5086841;28;20290;-82
2023/08/05 11:03:30;;;;;;;2.90;1.20;;;;;;;23.86;46.11;100526.50;5095317;28;20223;-81
2023/08/05 11:06:00;;;;;;;1.85;1.35;;;;;;;23.93;45.95;100533.94;5089407;28;20232;-81
2023/08/05 11:08:27;;;;;;;1.85;1.20;;;;;;;23.95;44.98;100516.38;5095999;28;20224;-80
2023/08/05 11:10:53;;;;;;;1.30;1.20;;;;;;;23.97;45.14;100525.22;5093932;28;20205;-80
2023/08/05 11:13:20;;;;;;;1.73;1.38;;;;;;;23.96;43.90;100518.09;5088747;28;20211;-80
2023/08/05 11:16:06;;;;;;;2.58;1.20;;;;;;;23.98;44.46;100510.59;5090875;28;20204;-80
2023/08/05 11:18:34;;;;;;;1.75;0.98;;;;;;;24.00;44.19;100504.97;5089808;28;20228;-81
2023/08/05 11:21:03;;;;;;;1.52;1.30;;;;;;;24.03;44.21;100508.13;5090877;28;20768;-81
2023/08/05 11:23:30;;;;;;;1.80;1.13;;;;;;;24.06;44.71;100501.47;5090439;28;20229;-81
2023/08/05 11:26:00;;;;;;;1.95;1.25;;;;;;;24.07;45.27;100500.44;5084973;28;20204;-80